Needles, CA

12:52 PM PDT on April 28, 2015 (GMT -0700)
Needles | | Change Station
CLOSE
Current Station
Airport
Location: Needles,
Elevation: 981 ft
Nearby Weather Stations

Elev 981 ft 34.77 °N, 114.62 °W | Updated 56 minutes ago

Clear
Clear
88 °F
Feels Like 88 °F
N
6
Wind Variable Wind from SSW

Today
High -- | Low -- °F
--% Chance of Precip.
Yesterday
High -- | Low -- °F
Precip. -- in
5:51 AM 7:21 PM
Waxing Gibbous, 76% visible
Pressure 29.89 in
Visibility 10.0 miles
Clouds Clear
Dew Point 30 °F
Humidity 12%
Rainfall 0.00 in
Snow Depth Not available.
UV 11 out of 12
Pollen 8.40 out of 12
Air Quality Not available.
Flu Activity Sporadic
METAR KEED 281856Z AUTO 21005KT 10SM CLR 31/M01 A2998 RMK AO2 SLP122 T03111011

More Conditions Fewer Conditions

Pressure 29.89 in
Visibility 10.0 miles
Clouds Clear
Dew Point 30 °F
Humidity 12%
Rainfall 0.00 in
Snow Depth Not available.
UV 11 out of 12
Pollen 8.40 out of 12
Air Quality Not available.
Flu Activity Sporadic
METAR KEED 281856Z AUTO 21005KT 10SM CLR 31/M01 A2998 RMK AO2 SLP122 T03111011

More Conditions Fewer Conditions

10-Day Weather Forecast

Almanac

Astronomy

Apr. 28, 2015 Rise Set
Actual Time
Civil Twilight
Nautical Twilight
Astronomical Twilight
Moon
Length of Visible Light
Length of Day
Tomorrow will be .
, % of the Moon is Illuminated

Today's Extremes

State Highs State Lows

Community

WunderPhotos

Upload Photos

1,817,741 photos uploaded!

WunderBlogs® & News

Nearby

Air Quality

  Air Quality AQ Index Pollutant
Not available.

Snow Depth

Station Depth Elevation

Earthquake Activity

City Distance Mag. Time & Date
Minimum magnitude displayed is 2.5.

Coastal Water Temperatures

Place Temperature

Stations

Nearby Weather Stations

Station Location Temp. Windchill Dew Point Humidity Wind Precip. Elev Updated Type